createdAt,value
2022-11-12T00:04:32.425Z,100
2022-11-12T00:09:30.589Z,100
2022-11-12T00:14:29.232Z,100
2022-11-12T00:19:27.162Z,100
2022-11-12T00:24:25.066Z,100
2022-11-12T00:29:23.327Z,100
2022-11-12T00:34:21.702Z,100
2022-11-12T00:39:20.071Z,100
2022-11-12T00:44:18.317Z,100
2022-11-12T00:49:16.517Z,100
2022-11-12T00:54:14.640Z,100
2022-11-12T00:59:12.827Z,100
2022-11-12T01:04:10.984Z,100
2022-11-12T01:09:09.150Z,100
2022-11-12T01:14:07.444Z,100
2022-11-12T01:19:05.849Z,100
2022-11-12T01:24:04.138Z,100
2022-11-12T01:29:02.932Z,100
2022-11-12T01:34:01.322Z,100
2022-11-12T01:38:59.477Z,100
2022-11-12T01:43:57.835Z,100
2022-11-12T01:48:56.203Z,100
2022-11-12T01:53:54.950Z,100
2022-11-12T01:58:53.145Z,100
2022-11-12T02:03:51.447Z,100
2022-11-12T02:08:49.704Z,100
2022-11-12T02:13:48.074Z,100
2022-11-12T02:18:46.034Z,100
2022-11-12T02:23:44.362Z,100
2022-11-12T02:28:42.382Z,100
2022-11-12T02:33:40.573Z,100
2022-11-12T02:38:38.841Z,100
2022-11-12T02:43:37.078Z,100
2022-11-12T02:48:35.259Z,100
2022-11-12T02:53:33.800Z,100
2022-11-12T02:58:32.520Z,100
2022-11-12T03:03:30.533Z,100
2022-11-12T03:08:29.029Z,100
2022-11-12T03:13:27.337Z,100
2022-11-12T03:18:25.814Z,100
2022-11-12T03:23:23.681Z,100
2022-11-12T03:28:21.894Z,100
2022-11-12T03:33:19.852Z,100
2022-11-12T03:38:17.825Z,100
2022-11-12T03:43:16.015Z,100
2022-11-12T03:48:13.892Z,100
2022-11-12T03:53:12.052Z,100
2022-11-12T03:58:09.936Z,100
2022-11-12T04:03:08.193Z,100
2022-11-12T04:08:06.263Z,100
2022-11-12T04:13:04.555Z,100
2022-11-12T04:18:02.749Z,100
2022-11-12T04:23:00.664Z,100
2022-11-12T04:27:58.711Z,100
2022-11-12T04:32:57.014Z,100
2022-11-12T04:37:55.022Z,100
2022-11-12T04:42:52.934Z,100
2022-11-12T04:47:51.015Z,100
2022-11-12T04:52:49.234Z,100
2022-11-12T04:57:47.292Z,100
2022-11-12T05:02:45.318Z,100
2022-11-12T05:07:43.383Z,100
2022-11-12T05:12:41.742Z,100
2022-11-12T05:17:39.813Z,100
2022-11-12T05:22:44.227Z,100
2022-11-12T05:27:36.463Z,100
2022-11-12T05:32:34.900Z,100
2022-11-12T05:37:33.450Z,100
2022-11-12T05:42:31.571Z,100
2022-11-12T05:47:30.017Z,100
2022-11-12T05:52:29.604Z,100
2022-11-12T05:57:27.705Z,100
2022-11-12T06:02:26.453Z,100
2022-11-12T06:07:25.365Z,100
2022-11-12T06:12:24.750Z,100
2022-11-12T06:17:23.783Z,94.9
2022-11-12T06:22:28.365Z,78.4
2022-11-12T06:27:31.246Z,68.9
2022-11-12T06:32:27.792Z,75.9
2022-11-12T06:37:23.299Z,84.1
2022-11-12T06:42:20.219Z,85.8
2022-11-12T06:47:17.929Z,87.4
2022-11-12T06:52:16.767Z,87.4
2022-11-12T06:57:14.078Z,86.8
2022-11-12T07:02:12.422Z,86.7
2022-11-12T07:07:11.211Z,86.5
2022-11-12T07:12:08.467Z,86.8
2022-11-12T07:17:06.213Z,87.9
2022-11-12T07:22:04.149Z,89.7
2022-11-12T07:27:01.949Z,90.3
2022-11-12T07:31:59.957Z,91.8
2022-11-12T07:36:58.301Z,92.8
2022-11-12T07:41:57.337Z,92.9
2022-11-12T07:46:56.086Z,90.8
2022-11-12T07:51:55.816Z,84.8
2022-11-12T07:56:55.313Z,80.2
2022-11-12T08:01:54.604Z,78.9
2022-11-12T08:06:53.075Z,77.5
2022-11-12T08:11:50.480Z,78.6
2022-11-12T08:16:48.968Z,81.4
2022-11-12T08:21:47.670Z,79.7
2022-11-12T08:26:48.476Z,68.5
2022-11-12T08:31:56.831Z,48.6
2022-11-12T08:36:58.944Z,40.4
2022-11-12T08:41:58.698Z,37.5
2022-11-12T08:46:56.058Z,34.5
2022-11-12T08:51:48.871Z,38.5
2022-11-12T08:56:42.763Z,42
2022-11-12T09:01:39.354Z,42.4
2022-11-12T09:06:43.426Z,34.6
2022-11-12T09:11:37.689Z,39.8
2022-11-12T09:16:33.203Z,43.1
2022-11-12T09:21:32.284Z,41
2022-11-12T09:26:31.482Z,40.8
2022-11-12T09:31:28.508Z,41.2
2022-11-12T09:36:28.198Z,38.8
2022-11-12T09:41:24.058Z,42.7
2022-11-12T09:46:27.491Z,44.1
2022-11-12T09:51:19.165Z,43.3
2022-11-12T09:56:17.225Z,43.6
2022-11-12T10:01:15.675Z,43.6
2022-11-12T10:06:19.074Z,42.3
2022-11-12T10:11:12.930Z,42.9
2022-11-12T10:16:11.052Z,43.4
2022-11-12T10:21:09.325Z,43.4
2022-11-12T10:26:07.382Z,43.8
2022-11-12T10:31:05.437Z,43.1
2022-11-12T10:36:03.796Z,43
2022-11-12T10:41:06.788Z,40.5
2022-11-12T10:46:01.449Z,42.7
2022-11-12T10:50:59.015Z,42.1
2022-11-12T10:55:57.152Z,42.2
2022-11-12T11:00:55.012Z,43.4
2022-11-12T11:05:52.578Z,44.3
2022-11-12T11:10:50.524Z,46.1
2022-11-12T11:15:48.841Z,46
2022-11-12T11:20:47.583Z,46.6
2022-11-12T11:25:45.471Z,45.7
2022-11-12T11:30:43.743Z,45.6
2022-11-12T11:35:42.359Z,45.1
2022-11-12T11:40:41.043Z,44.8
2022-11-12T11:45:38.839Z,45.1
2022-11-12T11:50:36.953Z,46
2022-11-12T11:55:34.944Z,46.2
2022-11-12T12:00:33.761Z,45.6
2022-11-12T12:05:32.210Z,46.5
2022-11-12T12:10:46.524Z,46.5
2022-11-12T12:15:28.286Z,47
2022-11-12T12:20:26.661Z,46.6
2022-11-12T12:25:25.564Z,46.4
2022-11-12T12:30:23.367Z,47.3
2022-11-12T12:35:20.961Z,49.9
2022-11-12T12:40:19.189Z,50.9
2022-11-12T12:45:16.712Z,51.6
2022-11-12T12:50:14.796Z,52
2022-11-12T12:55:12.728Z,52.1
2022-11-12T13:00:15.292Z,51.5
2022-11-12T13:05:10.173Z,49.3
2022-11-12T13:10:09.640Z,48.6
2022-11-12T13:15:07.928Z,47.8
2022-11-12T13:20:06.881Z,48.3
2022-11-12T13:25:04.641Z,49.1
2022-11-12T13:30:02.237Z,51.5
2022-11-12T13:34:59.562Z,54.5
2022-11-12T13:39:56.799Z,54.9
2022-11-12T13:44:56.173Z,55.8
2022-11-12T13:49:53.293Z,55.3
2022-11-12T13:54:52.319Z,54.7
2022-11-12T13:59:50.596Z,55.7
2022-11-12T14:04:48.659Z,57.7
2022-11-12T14:09:46.611Z,59.9
2022-11-12T14:14:44.065Z,62.9
2022-11-12T14:19:41.874Z,63.8
2022-11-12T14:24:39.541Z,65.5
2022-11-12T14:29:41.189Z,67.2
2022-11-12T14:34:35.166Z,68
2022-11-12T14:39:33.409Z,68.5
2022-11-12T14:44:31.335Z,67.9
2022-11-12T14:49:29.209Z,71.3
2022-11-12T14:54:27.164Z,72.3
2022-11-12T14:59:25.166Z,73.2
2022-11-12T15:04:22.793Z,74.3
2022-11-12T15:09:20.800Z,76.4
2022-11-12T15:14:18.664Z,78.3
2022-11-12T15:19:16.919Z,79.4
2022-11-12T15:24:15.045Z,80.9
2022-11-12T15:29:13.318Z,81.4
2022-11-12T15:34:11.479Z,82.2
2022-11-12T15:39:09.576Z,83.3
2022-11-12T15:44:07.646Z,83.5
2022-11-12T15:49:06.044Z,83
2022-11-12T15:54:04.437Z,82.8
2022-11-12T15:59:02.882Z,84.4
2022-11-12T16:04:01.765Z,84
2022-11-12T16:09:00.142Z,83.9
2022-11-12T16:13:58.399Z,83.5
2022-11-12T16:18:56.812Z,84
2022-11-12T16:23:55.386Z,84.1
2022-11-12T16:28:53.950Z,84.8
2022-11-12T16:33:52.519Z,86.2
2022-11-12T16:38:50.541Z,87.7
2022-11-12T16:43:48.439Z,88.2
2022-11-12T16:48:46.628Z,88
2022-11-12T16:53:45.282Z,88.3
2022-11-12T16:58:43.784Z,88
2022-11-12T17:03:41.861Z,87.9
2022-11-12T17:08:40.281Z,88.1
2022-11-12T17:13:38.425Z,88.4
2022-11-12T17:18:36.454Z,88.7
2022-11-12T17:23:35.603Z,87.9
2022-11-12T17:28:33.744Z,87.7
2022-11-12T17:33:31.953Z,88.3
2022-11-12T17:38:30.391Z,89.3
2022-11-12T17:43:28.729Z,90
2022-11-12T17:48:26.677Z,91
2022-11-12T17:53:25.596Z,91.2
2022-11-12T17:58:23.507Z,92.6
2022-11-12T18:03:21.447Z,93.3
2022-11-12T18:08:19.600Z,94
2022-11-12T18:13:17.727Z,94.6
2022-11-12T18:18:16.154Z,95.1
2022-11-12T18:23:14.191Z,96.4
2022-11-12T18:28:12.287Z,96.7
2022-11-12T18:33:10.527Z,97.5
2022-11-12T18:38:09.235Z,98
2022-11-12T18:43:06.906Z,98.1
2022-11-12T18:48:05.384Z,98.7
2022-11-12T18:53:03.412Z,99.4
2022-11-12T18:58:01.455Z,99.9
2022-11-12T19:02:59.467Z,100
2022-11-12T19:07:57.686Z,100
2022-11-12T19:12:55.949Z,100
2022-11-12T19:17:54.165Z,100
2022-11-12T19:22:52.557Z,100
2022-11-12T19:27:51.189Z,100
2022-11-12T19:32:49.627Z,100
2022-11-12T19:37:47.942Z,100
2022-11-12T19:42:45.732Z,100
2022-11-12T19:47:43.936Z,100
2022-11-12T19:52:42.241Z,100
2022-11-12T19:57:40.580Z,100
2022-11-12T20:02:38.684Z,100
2022-11-12T20:07:36.823Z,100
2022-11-12T20:12:35.255Z,100
2022-11-12T20:17:33.734Z,100
2022-11-12T20:22:32.565Z,100
2022-11-12T20:27:30.431Z,100
2022-11-12T20:32:29.328Z,100
2022-11-12T20:37:27.635Z,100
2022-11-12T20:42:25.843Z,100
2022-11-12T20:47:24.396Z,100
2022-11-12T20:52:22.833Z,100
2022-11-12T20:57:21.659Z,100
2022-11-12T21:02:19.859Z,100
2022-11-12T21:07:18.733Z,100
2022-11-12T21:12:17.088Z,100
2022-11-12T21:17:15.268Z,100
2022-11-12T21:22:13.445Z,100
2022-11-12T21:27:11.570Z,100
2022-11-12T21:32:09.689Z,100
2022-11-12T21:37:08.037Z,100
2022-11-12T21:42:06.312Z,100
2022-11-12T21:47:04.722Z,100
2022-11-12T21:52:03.114Z,100
2022-11-12T21:57:01.292Z,100
2022-11-12T22:01:59.697Z,100
2022-11-12T22:06:57.874Z,100
2022-11-12T22:11:56.056Z,100
2022-11-12T22:16:54.418Z,100
2022-11-12T22:21:52.521Z,100
2022-11-12T22:26:50.713Z,100
2022-11-12T22:31:48.924Z,100
2022-11-12T22:36:47.412Z,100
2022-11-12T22:41:45.608Z,100
2022-11-12T22:46:43.697Z,100
2022-11-12T22:51:42.003Z,100
2022-11-12T22:56:40.648Z,100
2022-11-12T23:01:38.847Z,100
2022-11-12T23:06:37.500Z,100
2022-11-12T23:11:35.660Z,100
2022-11-12T23:16:33.805Z,100
2022-11-12T23:21:32.141Z,100
2022-11-12T23:26:30.703Z,100
2022-11-12T23:31:29.531Z,100
2022-11-12T23:36:27.845Z,100
2022-11-12T23:41:25.970Z,100
2022-11-12T23:46:24.623Z,100
2022-11-12T23:51:22.868Z,100
2022-11-12T23:56:21.323Z,100
